createdAt,value
2023-04-19T00:02:11.205Z,10.01
2023-04-19T00:05:14.283Z,9.93
2023-04-19T00:08:16.858Z,9.74
2023-04-19T00:11:19.982Z,9.70
2023-04-19T00:14:22.651Z,9.64
2023-04-19T00:17:25.186Z,9.57
2023-04-19T00:20:28.171Z,9.52
2023-04-19T00:23:30.933Z,9.29
2023-04-19T00:26:33.612Z,9.34
2023-04-19T00:29:37.135Z,9.21
2023-04-19T00:32:41.081Z,9.18
2023-04-19T00:35:44.220Z,9.14
2023-04-19T00:38:48.903Z,9.04
2023-04-19T00:41:51.920Z,9.01
2023-04-19T00:44:54.848Z,8.92
2023-04-19T00:47:57.465Z,8.97
2023-04-19T00:51:00.448Z,9.07
2023-04-19T00:54:04.000Z,9.04
2023-04-19T00:57:06.842Z,9.15
2023-04-19T01:00:10.430Z,9.14
2023-04-19T01:03:13.671Z,9.12
2023-04-19T01:06:16.541Z,8.98
2023-04-19T01:09:19.316Z,8.85
2023-04-19T01:12:23.236Z,8.82
2023-04-19T01:15:26.460Z,8.87
2023-04-19T01:18:37.709Z,8.96
2023-04-19T01:21:42.815Z,8.78
2023-04-19T01:24:45.766Z,8.92
2023-04-19T01:27:48.692Z,8.91
2023-04-19T01:30:53.933Z,8.95
2023-04-19T01:33:56.714Z,8.89
2023-04-19T01:36:59.738Z,8.92
2023-04-19T01:40:05.532Z,8.81
2023-04-19T01:43:08.584Z,8.98
2023-04-19T01:46:11.293Z,8.93
2023-04-19T01:49:14.713Z,8.85
2023-04-19T01:52:18.740Z,8.82
2023-04-19T01:55:21.630Z,8.83
2023-04-19T01:58:24.149Z,8.97
2023-04-19T02:01:27.286Z,8.94
2023-04-19T02:04:29.912Z,9.02
2023-04-19T02:07:34.721Z,9.03
2023-04-19T02:10:37.224Z,9.07
2023-04-19T02:13:40.597Z,9.04
2023-04-19T02:16:43.593Z,9.13
2023-04-19T02:19:46.349Z,8.99
2023-04-19T02:22:49.242Z,9.05
2023-04-19T02:25:52.268Z,8.95
2023-04-19T02:28:55.013Z,9.05
2023-04-19T02:31:58.084Z,9.11
2023-04-19T02:35:01.009Z,9.00
2023-04-19T02:38:05.610Z,9.14
2023-04-19T02:41:08.066Z,9.08
2023-04-19T02:44:15.351Z,8.98
2023-04-19T02:47:19.496Z,8.98
2023-04-19T02:50:22.200Z,9.05
2023-04-19T02:53:26.763Z,9.08
2023-04-19T02:56:29.588Z,9.12
2023-04-19T02:59:33.009Z,9.11
2023-04-19T03:02:38.333Z,9.14
2023-04-19T03:05:42.270Z,9.14
2023-04-19T03:08:45.546Z,9.14
2023-04-19T03:11:48.074Z,9.25
2023-04-19T03:14:52.550Z,9.05
2023-04-19T03:17:55.457Z,9.07
2023-04-19T03:20:58.862Z,9.09
2023-04-19T03:24:05.384Z,9.15
2023-04-19T03:27:08.478Z,8.99
2023-04-19T03:30:12.960Z,9.00
2023-04-19T03:33:16.638Z,8.99
2023-04-19T03:36:19.168Z,9.01
2023-04-19T03:39:23.276Z,9.04
2023-04-19T03:42:31.129Z,9.11
2023-04-19T03:45:41.193Z,9.20
2023-04-19T03:48:44.017Z,9.22
2023-04-19T03:51:46.820Z,9.37
2023-04-19T03:54:49.330Z,9.33
2023-04-19T03:58:05.445Z,9.37
2023-04-19T04:01:22.503Z,9.40
2023-04-19T04:04:26.305Z,9.42
2023-04-19T04:07:30.372Z,9.54
2023-04-19T04:10:33.378Z,9.53
2023-04-19T04:13:36.373Z,9.53
2023-04-19T04:16:45.995Z,9.58
2023-04-19T04:19:50.432Z,9.56
2023-04-19T04:22:54.384Z,9.62
2023-04-19T04:26:00.759Z,9.68
2023-04-19T04:29:13.830Z,9.80
2023-04-19T04:32:23.228Z,9.79
2023-04-19T04:35:30.786Z,9.85
2023-04-19T04:38:42.019Z,10.05
2023-04-19T04:41:45.206Z,10.11
2023-04-19T04:44:47.993Z,10.27
2023-04-19T04:47:51.880Z,10.39
2023-04-19T04:50:55.530Z,10.51
2023-04-19T04:53:58.751Z,10.59
2023-04-19T04:57:02.897Z,10.68
2023-04-19T05:00:07.066Z,10.72
2023-04-19T05:03:18.239Z,10.81
2023-04-19T05:06:27.517Z,11.01
2023-04-19T05:09:30.498Z,11.15
2023-04-19T05:12:34.847Z,11.21
2023-04-19T05:15:37.867Z,11.30
2023-04-19T05:18:41.550Z,11.33
2023-04-19T05:21:44.733Z,11.57
2023-04-19T05:24:50.436Z,11.54
2023-04-19T05:27:53.948Z,11.54
2023-04-19T05:30:56.593Z,11.75
2023-04-19T05:34:02.556Z,12.08
2023-04-19T05:37:05.632Z,12.40
2023-04-19T05:40:10.343Z,12.70
2023-04-19T05:43:13.325Z,13.17
2023-04-19T05:46:16.261Z,13.37
2023-04-19T05:49:18.843Z,13.81
2023-04-19T05:52:38.577Z,13.83
2023-04-19T05:55:41.234Z,14.31
2023-04-19T05:58:43.786Z,14.21
2023-04-19T06:01:46.519Z,14.98
2023-04-19T06:04:49.656Z,15.27
2023-04-19T06:08:02.571Z,15.45
2023-04-19T06:11:15.756Z,15.65
2023-04-19T06:14:29.379Z,16.05
2023-04-19T06:17:32.407Z,16.34
2023-04-19T06:20:35.086Z,16.89
2023-04-19T06:23:37.924Z,17.24
2023-04-19T06:26:40.940Z,17.49
2023-04-19T06:29:43.550Z,17.58
2023-04-19T06:32:46.123Z,16.83
2023-04-19T06:35:48.635Z,16.88
2023-04-19T06:38:51.571Z,17.24
2023-04-19T06:41:54.214Z,17.85
2023-04-19T06:44:58.259Z,16.99
2023-04-19T06:48:00.995Z,16.40
2023-04-19T06:51:03.868Z,16.33
2023-04-19T06:54:06.600Z,16.22
2023-04-19T06:57:09.141Z,15.57
2023-04-19T07:00:12.255Z,15.70
2023-04-19T07:03:15.129Z,16.38
2023-04-19T07:06:18.057Z,17.05
2023-04-19T07:09:20.646Z,16.69
2023-04-19T07:12:23.323Z,16.32
2023-04-19T07:15:25.955Z,16.21
2023-04-19T07:18:28.611Z,15.71
2023-04-19T07:21:33.592Z,15.51
2023-04-19T07:24:36.191Z,15.56
2023-04-19T07:27:38.864Z,15.78
2023-04-19T07:30:41.618Z,17.28
2023-04-19T07:33:45.263Z,17.51
2023-04-19T07:36:47.999Z,18.49
2023-04-19T07:39:50.717Z,18.39
2023-04-19T07:42:55.537Z,18.40
2023-04-19T07:45:58.535Z,17.77
2023-04-19T07:49:01.062Z,17.82
2023-04-19T07:52:08.007Z,17.84
2023-04-19T07:55:10.961Z,17.70
2023-04-19T07:58:13.567Z,16.42
2023-04-19T08:01:16.342Z,16.25
2023-04-19T08:04:20.763Z,16.41
2023-04-19T08:07:24.160Z,16.66
2023-04-19T08:10:28.898Z,17.15
2023-04-19T08:13:31.668Z,17.70
2023-04-19T08:17:14.609Z,18.45
2023-04-19T08:19:57.275Z,19.10
2023-04-19T08:23:07.520Z,19.66
2023-04-19T08:26:16.922Z,19.12
2023-04-19T08:29:23.341Z,19.01
2023-04-19T08:32:26.250Z,20.00
2023-04-19T08:35:29.034Z,21.00
2023-04-19T08:38:32.070Z,20.02
2023-04-19T08:41:35.147Z,21.03
2023-04-19T08:44:53.836Z,20.55
2023-04-19T08:48:04.311Z,20.99
2023-04-19T08:51:07.582Z,20.29
2023-04-19T08:54:11.381Z,20.58
2023-04-19T08:57:15.145Z,20.80
2023-04-19T09:00:18.418Z,22.38
2023-04-19T09:03:21.222Z,22.65
2023-04-19T09:06:24.621Z,22.51
2023-04-19T09:12:37.703Z,23.70
2023-04-19T09:15:43.767Z,23.00
2023-04-19T09:19:15.315Z,22.00
2023-04-19T09:22:25.836Z,22.10
2023-04-19T09:25:49.250Z,22.27
2023-04-19T09:29:03.788Z,22.44
2023-04-19T09:32:07.046Z,22.43
2023-04-19T09:35:09.782Z,22.60
2023-04-19T09:38:12.463Z,23.18
2023-04-19T09:41:17.571Z,21.23
2023-04-19T09:44:53.041Z,20.71
2023-04-19T09:47:43.625Z,20.45
2023-04-19T09:51:10.569Z,21.64
2023-04-19T09:54:17.297Z,21.35
2023-04-19T09:57:19.918Z,21.15
2023-04-19T10:00:23.200Z,20.53
2023-04-19T10:03:30.442Z,20.37
2023-04-19T10:06:51.915Z,19.32
2023-04-19T10:10:11.756Z,18.45
2023-04-19T10:16:27.339Z,17.11
2023-04-19T10:19:31.458Z,17.20
2023-04-19T10:22:38.875Z,17.19
2023-04-19T10:25:47.862Z,17.18
2023-04-19T10:28:50.684Z,17.62
2023-04-19T10:31:53.588Z,17.45
2023-04-19T10:35:04.983Z,17.40
2023-04-19T10:38:16.557Z,17.76
2023-04-19T10:41:19.672Z,18.08
2023-04-19T10:44:22.675Z,18.89
2023-04-19T10:47:45.149Z,18.50
2023-04-19T10:51:19.576Z,20.29
2023-04-19T10:54:30.198Z,20.67
2023-04-19T10:58:02.860Z,21.90
2023-04-19T11:01:41.102Z,22.75
2023-04-19T11:04:58.079Z,23.27
2023-04-19T11:08:01.942Z,24.39
2023-04-19T11:11:04.633Z,22.27
2023-04-19T11:14:08.771Z,20.38
2023-04-19T11:17:16.702Z,20.02
2023-04-19T11:20:23.170Z,20.84
2023-04-19T11:23:26.252Z,20.75
2023-04-19T11:26:28.886Z,19.76
2023-04-19T11:29:31.510Z,19.84
2023-04-19T11:32:34.926Z,20.97
2023-04-19T11:35:37.526Z,21.44
2023-04-19T11:38:40.561Z,22.59
2023-04-19T11:41:43.343Z,24.07
2023-04-19T11:44:51.861Z,25.16
2023-04-19T11:47:54.570Z,24.18
2023-04-19T11:50:59.075Z,23.05
2023-04-19T11:54:01.668Z,23.99
2023-04-19T11:57:06.785Z,23.75
2023-04-19T12:00:12.114Z,23.44
2023-04-19T12:03:15.975Z,22.43
2023-04-19T12:06:22.562Z,21.66
2023-04-19T12:09:25.266Z,22.53
2023-04-19T12:12:34.107Z,22.59
2023-04-19T12:15:44.577Z,22.01
2023-04-19T12:18:50.028Z,20.59
2023-04-19T12:21:52.723Z,20.64
2023-04-19T12:24:56.068Z,20.92
2023-04-19T12:27:59.766Z,22.56
2023-04-19T12:31:02.327Z,23.63
2023-04-19T12:34:04.828Z,23.72
2023-04-19T12:37:07.469Z,23.11
2023-04-19T12:40:10.652Z,23.94
2023-04-19T12:43:13.269Z,23.66
2023-04-19T12:46:15.973Z,23.34
2023-04-19T12:49:20.094Z,24.46
2023-04-19T12:52:22.699Z,22.25
2023-04-19T12:55:25.583Z,21.64
2023-04-19T12:58:28.401Z,20.68
2023-04-19T13:01:32.386Z,21.11
2023-04-19T13:04:36.358Z,20.92
2023-04-19T13:07:39.243Z,20.91
2023-04-19T13:10:41.897Z,20.72
2023-04-19T13:13:44.814Z,21.89
2023-04-19T13:16:47.988Z,22.54
2023-04-19T13:19:51.079Z,22.00
2023-04-19T13:22:53.852Z,22.36
2023-04-19T13:25:56.716Z,23.13
2023-04-19T13:28:59.378Z,23.11
2023-04-19T13:32:02.024Z,21.92
2023-04-19T13:35:05.226Z,22.37
2023-04-19T13:38:07.786Z,22.37
2023-04-19T13:41:10.546Z,22.72
2023-04-19T13:44:13.301Z,23.18
2023-04-19T13:47:16.018Z,22.82
2023-04-19T13:50:18.602Z,22.42
2023-04-19T13:53:21.349Z,21.96
2023-04-19T13:56:23.877Z,21.83
2023-04-19T13:59:26.439Z,20.75
2023-04-19T14:02:29.284Z,20.98
2023-04-19T14:05:32.272Z,20.33
2023-04-19T14:08:35.406Z,20.15
2023-04-19T14:11:39.079Z,19.97
2023-04-19T14:14:41.881Z,20.41
2023-04-19T14:17:44.467Z,19.70
2023-04-19T14:20:47.349Z,20.27
2023-04-19T14:23:49.975Z,20.94
2023-04-19T14:27:03.561Z,20.66
2023-04-19T14:30:12.496Z,20.55
2023-04-19T14:33:15.246Z,20.67
2023-04-19T14:36:17.931Z,20.57
2023-04-19T14:39:20.487Z,20.62
2023-04-19T14:42:23.246Z,20.71
2023-04-19T14:45:26.516Z,19.91
2023-04-19T14:48:29.549Z,20.02
2023-04-19T14:51:32.756Z,19.85
2023-04-19T14:54:35.391Z,19.81
2023-04-19T14:57:37.904Z,19.76
2023-04-19T15:00:41.070Z,20.11
2023-04-19T15:03:44.456Z,20.15
2023-04-19T15:06:47.333Z,20.18
2023-04-19T15:09:50.280Z,20.16
2023-04-19T15:12:52.910Z,20.08
2023-04-19T15:15:56.064Z,19.54
2023-04-19T15:18:58.759Z,19.63
2023-04-19T15:22:03.953Z,19.93
2023-04-19T15:25:07.322Z,19.67
2023-04-19T15:28:09.978Z,19.76
2023-04-19T15:31:12.872Z,19.09
2023-04-19T15:34:15.308Z,19.12
2023-04-19T15:37:18.082Z,19.02
2023-04-19T15:40:21.401Z,18.78
2023-04-19T15:43:24.989Z,18.80
2023-04-19T15:46:27.661Z,18.67
2023-04-19T15:49:30.797Z,18.55
2023-04-19T15:52:33.642Z,18.15
2023-04-19T15:55:36.614Z,18.30
2023-04-19T15:58:39.755Z,18.29
2023-04-19T16:01:42.748Z,17.97
2023-04-19T16:04:48.562Z,17.96
2023-04-19T16:08:09.331Z,17.30
2023-04-19T16:11:11.937Z,17.08
2023-04-19T16:14:14.736Z,17.06
2023-04-19T16:17:17.201Z,17.00
2023-04-19T16:20:20.685Z,16.88
2023-04-19T16:23:24.421Z,16.84
2023-04-19T16:26:27.307Z,16.86
2023-04-19T16:29:30.800Z,16.90
2023-04-19T16:32:33.777Z,16.70
2023-04-19T16:35:36.236Z,16.69
2023-04-19T16:38:39.214Z,16.55
2023-04-19T16:41:41.890Z,16.35
2023-04-19T16:44:44.486Z,16.29
2023-04-19T16:47:48.191Z,16.12
2023-04-19T16:50:51.634Z,16.09
2023-04-19T16:53:54.862Z,15.81
2023-04-19T16:56:58.059Z,15.73
2023-04-19T17:00:01.038Z,15.60
2023-04-19T17:03:04.298Z,15.44
2023-04-19T17:06:07.097Z,15.38
2023-04-19T17:09:10.535Z,15.26
2023-04-19T17:12:13.214Z,15.05
2023-04-19T17:15:16.709Z,14.79
2023-04-19T17:18:19.364Z,14.78
2023-04-19T17:21:22.137Z,14.49
2023-04-19T17:24:24.800Z,14.47
2023-04-19T17:27:27.943Z,14.44
2023-04-19T17:30:30.751Z,14.35
2023-04-19T17:33:33.485Z,14.21
2023-04-19T17:36:36.377Z,14.07
2023-04-19T17:39:39.944Z,14.06
2023-04-19T17:42:43.086Z,14.08
2023-04-19T17:45:45.912Z,14.05
2023-04-19T17:48:48.705Z,13.90
2023-04-19T17:51:53.379Z,13.77
2023-04-19T17:54:56.238Z,13.71
2023-04-19T17:57:59.845Z,13.65
2023-04-19T18:01:03.448Z,13.58
2023-04-19T18:04:07.347Z,13.66
2023-04-19T18:07:10.061Z,13.53
2023-04-19T18:10:13.105Z,13.54
2023-04-19T18:13:15.795Z,13.30
2023-04-19T18:16:19.661Z,13.15
2023-04-19T18:19:24.016Z,13.00
2023-04-19T18:22:27.191Z,12.88
2023-04-19T18:25:30.248Z,12.74
2023-04-19T18:28:35.592Z,12.69
2023-04-19T18:31:38.600Z,12.63
2023-04-19T18:34:42.081Z,12.66
2023-04-19T18:37:44.843Z,12.73
2023-04-19T18:40:48.444Z,12.72
2023-04-19T18:44:19.212Z,12.77
2023-04-19T18:47:14.542Z,12.79
2023-04-19T18:50:19.127Z,12.73
2023-04-19T18:53:22.218Z,12.81
2023-04-19T18:56:56.101Z,12.83
2023-04-19T18:59:48.416Z,12.75
2023-04-19T19:02:52.889Z,12.72
2023-04-19T19:05:56.680Z,12.62
2023-04-19T19:09:00.671Z,12.59
2023-04-19T19:12:04.099Z,12.48
2023-04-19T19:15:07.806Z,12.47
2023-04-19T19:18:10.740Z,12.38
2023-04-19T19:21:13.800Z,12.33
2023-04-19T19:24:16.967Z,12.31
2023-04-19T19:27:19.888Z,12.20
2023-04-19T19:30:23.496Z,12.10
2023-04-19T19:33:28.769Z,12.04
2023-04-19T19:36:32.452Z,11.91
2023-04-19T19:39:35.665Z,11.83
2023-04-19T19:42:41.393Z,11.70
2023-04-19T19:45:44.261Z,11.58
2023-04-19T19:51:58.655Z,11.43
2023-04-19T19:55:02.689Z,11.35
2023-04-19T20:01:11.534Z,11.34
2023-04-19T20:04:15.024Z,11.24
2023-04-19T20:07:37.397Z,11.06
2023-04-19T20:10:43.550Z,11.08
2023-04-19T20:13:46.630Z,11.00
2023-04-19T20:16:49.920Z,10.94
2023-04-19T20:19:52.875Z,11.01
2023-04-19T20:22:56.262Z,11.00
2023-04-19T20:26:01.361Z,10.93
2023-04-19T20:29:04.428Z,10.91
2023-04-19T20:32:08.685Z,10.89
2023-04-19T20:35:12.483Z,10.91
2023-04-19T20:38:15.721Z,10.91
2023-04-19T20:41:19.392Z,10.99
2023-04-19T20:44:23.293Z,10.84
2023-04-19T20:47:26.342Z,10.84
2023-04-19T20:50:29.289Z,10.74
2023-04-19T20:53:32.467Z,10.78
2023-04-19T20:56:35.547Z,10.84
2023-04-19T20:59:39.369Z,10.73
2023-04-19T21:02:42.367Z,10.73
2023-04-19T21:05:44.891Z,10.74
2023-04-19T21:08:47.793Z,10.57
2023-04-19T21:11:50.318Z,10.42
2023-04-19T21:14:53.775Z,10.43
2023-04-19T21:17:56.443Z,10.48
2023-04-19T21:20:59.312Z,10.44
2023-04-19T21:24:08.669Z,10.44
2023-04-19T21:27:11.416Z,10.44
2023-04-19T21:30:14.268Z,10.43
2023-04-19T21:33:18.362Z,10.48
2023-04-19T21:36:20.971Z,10.39
2023-04-19T21:39:23.944Z,10.31
2023-04-19T21:42:26.336Z,10.24
2023-04-19T21:45:29.131Z,10.28
2023-04-19T21:48:31.971Z,10.24
2023-04-19T21:51:34.603Z,10.24
2023-04-19T21:54:37.409Z,10.33
2023-04-19T21:57:40.093Z,10.29
2023-04-19T22:00:43.017Z,10.27
2023-04-19T22:03:46.715Z,10.29
2023-04-19T22:06:49.561Z,10.24
2023-04-19T22:09:52.626Z,10.24
2023-04-19T22:12:58.836Z,10.25
2023-04-19T22:16:02.770Z,10.25
2023-04-19T22:19:05.888Z,10.36
2023-04-19T22:22:08.616Z,10.38
2023-04-19T22:25:11.445Z,10.40
2023-04-19T22:28:14.316Z,10.37
2023-04-19T22:31:16.922Z,10.40
2023-04-19T22:34:19.907Z,10.42
2023-04-19T22:37:22.910Z,10.40
2023-04-19T22:40:25.561Z,10.48
2023-04-19T22:43:28.483Z,10.53
2023-04-19T22:46:31.333Z,10.65
2023-04-19T22:49:33.794Z,10.67
2023-04-19T22:52:37.581Z,10.56
2023-04-19T22:55:40.561Z,10.41
2023-04-19T22:58:43.756Z,10.34
2023-04-19T23:01:46.533Z,10.27
2023-04-19T23:04:50.012Z,10.18
2023-04-19T23:07:53.334Z,10.06
2023-04-19T23:10:56.517Z,10.02
2023-04-19T23:13:59.314Z,10.02
2023-04-19T23:17:03.093Z,10.12
2023-04-19T23:20:09.502Z,10.16
2023-04-19T23:23:12.282Z,9.94
2023-04-19T23:26:15.303Z,10.00
2023-04-19T23:29:18.162Z,10.07
2023-04-19T23:32:21.327Z,10.05
2023-04-19T23:35:24.282Z,10.00
2023-04-19T23:38:26.724Z,9.80
2023-04-19T23:41:29.421Z,9.70
2023-04-19T23:44:31.897Z,9.65
2023-04-19T23:47:34.770Z,9.74
2023-04-19T23:50:37.651Z,9.76
2023-04-19T23:53:40.749Z,9.58
2023-04-19T23:56:45.421Z,9.60
2023-04-19T23:59:48.521Z,9.48
